Trigger — WDF7822 — position and weather

sailwx.info

Track history (hours):
 
Tides and Currents Weather Stations Pressure Air Temp Water Temp Dewpoint Dewpoint Depression Visibility Wind Speed Wind Dir Waves Ship Positions

Trigger

Owner: Harley Marine Services, INC, Seattle, WA. More information available from US FCC via Universal Licensing System.

Last reported at 2017-Sep-20 18:10 UTC. Time now 2017-Sep-20 18:37 UTC.
Position N 29°41' W 094°60'.

Length 31 m; draft 3.2 m.

Type: Towing. MMSI: 367488490.

Date/timePositionNaut miles runAvg speedWind from/ knotsBaromVisibWave heightAir tempDewpointWater temp
2017-Sep-20 18:10N 29°41' W 094°60'0 0.0
2017-Sep-20 17:58N 29°41' W 094°60'0 0.0
2017-Sep-20 17:01N 29°41' W 094°60'0 0.0
2017-Sep-20 16:46N 29°41' W 094°60'0 0.0
2017-Sep-20 15:46N 29°41' W 094°60'0 0.0
2017-Sep-20 15:25N 29°41' W 094°60'0 0.0
2017-Sep-20 14:55N 29°41' W 094°60'0 0.0
2017-Sep-20 13:49N 29°41' W 094°60'0 0.0
2017-Sep-20 13:22N 29°41' W 094°60'0 0.0
2017-Sep-20 12:58N 29°41' W 094°60'0 0.0
2017-Sep-20 12:16N 29°41' W 094°60'0 0.6
2017-Sep-20 11:58N 29°41' W 094°59'2 4.6
2017-Sep-20 11:30N 29°42' W 095°01'3 6.5
2017-Sep-20 11:00N 29°45' W 095°04'4 0.1
2017-Sep-19 04:32N 29°44' W 095°09'1 7.5
2017-Sep-19 04:23N 29°45' W 095°10'1 0.1
2017-Sep-18 22:14N 29°44' W 095°09'2 7.0
2017-Sep-18 21:54N 29°45' W 095°06'3 0.1
2017-Sep-17 22:54N 29°44' W 095°03'0 0.0
2017-Sep-17 22:24N 29°44' W 095°03'0 0.0
2017-Sep-17 18:57N 29°44' W 095°03'0 0.0
2017-Sep-17 18:27N 29°44' W 095°03'0 0.0
2017-Sep-17 17:57N 29°44' W 095°03'0 0.0
2017-Sep-17 16:42N 29°44' W 095°03'0 0.0
2017-Sep-17 11:00N 29°44' W 095°03'0 0.1
2017-Sep-17 03:14N 29°44' W 095°03'2 6.6
2017-Sep-17 02:55N 29°42' W 095°01'2 3.8
2017-Sep-17 02:30N 29°41' W 095°00'0 0.0
2017-Sep-16 16:12N 29°41' W 095°01'0 0.0
2017-Sep-16 16:00N 29°41' W 095°01'0 0.0
2017-Sep-16 15:30N 29°41' W 095°01'0 0.0
2017-Sep-16 14:48N 29°41' W 095°01'0 0.0
2017-Sep-16 13:36N 29°41' W 095°00'0 2.3
2017-Sep-16 13:30N 29°41' W 095°00'2 3.5
2017-Sep-16 13:00N 29°42' W 095°01'4 7.2
2017-Sep-16 12:30N 29°45' W 095°04'  
2017-Sep-13 12:51N 29°45' W 095°10'3 6.8
2017-Sep-13 12:23N 29°45' W 095°06'4 0.2
2017-Sep-12 13:21N 29°45' W 095°11'0 0.0
2017-Sep-12 12:54N 29°45' W 095°11'2 4.9
2017-Sep-12 12:29N 29°44' W 095°08'3 6.7
2017-Sep-12 12:00N 29°46' W 095°05'1 0.0
2017-Sep-11 16:53N 29°46' W 095°05'2 4.8
2017-Sep-11 16:22N 29°44' W 095°03'0 0.0
2017-Sep-11 13:08N 29°44' W 095°03'0 0.0
2017-Sep-11 05:51N 29°44' W 095°03'0 0.2
2017-Sep-11 05:30N 29°44' W 095°03'2 3.9
2017-Sep-11 04:57N 29°42' W 095°01'2 3.4
2017-Sep-11 04:30N 29°41' W 095°00'0 0.2
2017-Sep-11 03:52N 29°41' W 095°01'0 0.0
2017-Sep-11 03:28N 29°41' W 095°01'0 0.0
2017-Sep-11 00:10N 29°41' W 095°01'0 0.0
2017-Sep-10 23:55N 29°41' W 095°01'0 0.0
2017-Sep-10 22:31N 29°41' W 095°01'0 0.1
2017-Sep-10 22:22N 29°41' W 095°01'0 0.0
2017-Sep-10 19:01N 29°41' W 095°01'0 0.4
2017-Sep-10 18:55N 29°41' W 095°00'0 0.5
2017-Sep-10 18:30N 29°41' W 095°00'  
Track history (hours):
 
Tides and Currents Weather Stations Pressure Air Temp Water Temp Dewpoint Dewpoint Depression Visibility Wind Speed Wind Dir Waves Ship Positions

Trigger

Owner: Harley Marine Services, INC, Seattle, WA. More information available from US FCC via Universal Licensing System.

Last reported at 2017-Sep-20 18:10 UTC. Time now 2017-Sep-20 18:37 UTC.
Position N 29°41' W 094°60'.

Length 31 m; draft 3.2 m.

Type: Towing. MMSI: 367488490.

Date/timePositionNaut miles runAvg speedWind from/ knotsBaromVisibWave heightAir tempDewpointWater temp
2017-Sep-20 18:10N 29°41' W 094°60'0 0.0
2017-Sep-20 17:58N 29°41' W 094°60'0 0.0
2017-Sep-20 17:01N 29°41' W 094°60'0 0.0
2017-Sep-20 16:46N 29°41' W 094°60'0 0.0
2017-Sep-20 15:46N 29°41' W 094°60'0 0.0
2017-Sep-20 15:25N 29°41' W 094°60'0 0.0
2017-Sep-20 14:55N 29°41' W 094°60'0 0.0
2017-Sep-20 13:49N 29°41' W 094°60'0 0.0
2017-Sep-20 13:22N 29°41' W 094°60'0 0.0
2017-Sep-20 12:58N 29°41' W 094°60'0 0.0
2017-Sep-20 12:16N 29°41' W 094°60'0 0.6
2017-Sep-20 11:58N 29°41' W 094°59'2 4.6
2017-Sep-20 11:30N 29°42' W 095°01'3 6.5
2017-Sep-20 11:00N 29°45' W 095°04'4 0.1
2017-Sep-19 04:32N 29°44' W 095°09'1 7.5
2017-Sep-19 04:23N 29°45' W 095°10'1 0.1
2017-Sep-18 22:14N 29°44' W 095°09'2 7.0
2017-Sep-18 21:54N 29°45' W 095°06'3 0.1
2017-Sep-17 22:54N 29°44' W 095°03'0 0.0
2017-Sep-17 22:24N 29°44' W 095°03'0 0.0
2017-Sep-17 18:57N 29°44' W 095°03'0 0.0
2017-Sep-17 18:27N 29°44' W 095°03'0 0.0
2017-Sep-17 17:57N 29°44' W 095°03'0 0.0
2017-Sep-17 16:42N 29°44' W 095°03'0 0.0
2017-Sep-17 11:00N 29°44' W 095°03'0 0.1
2017-Sep-17 03:14N 29°44' W 095°03'2 6.6
2017-Sep-17 02:55N 29°42' W 095°01'2 3.8
2017-Sep-17 02:30N 29°41' W 095°00'0 0.0
2017-Sep-16 16:12N 29°41' W 095°01'0 0.0
2017-Sep-16 16:00N 29°41' W 095°01'0 0.0
2017-Sep-16 15:30N 29°41' W 095°01'0 0.0
2017-Sep-16 14:48N 29°41' W 095°01'0 0.0
2017-Sep-16 13:36N 29°41' W 095°00'0 2.3
2017-Sep-16 13:30N 29°41' W 095°00'2 3.5
2017-Sep-16 13:00N 29°42' W 095°01'4 7.2
2017-Sep-16 12:30N 29°45' W 095°04'  
2017-Sep-13 12:51N 29°45' W 095°10'3 6.8
2017-Sep-13 12:23N 29°45' W 095°06'4 0.2
2017-Sep-12 13:21N 29°45' W 095°11'0 0.0
2017-Sep-12 12:54N 29°45' W 095°11'2 4.9
2017-Sep-12 12:29N 29°44' W 095°08'3 6.7
2017-Sep-12 12:00N 29°46' W 095°05'1 0.0
2017-Sep-11 16:53N 29°46' W 095°05'2 4.8
2017-Sep-11 16:22N 29°44' W 095°03'0 0.0
2017-Sep-11 13:08N 29°44' W 095°03'0 0.0
2017-Sep-11 05:51N 29°44' W 095°03'0 0.2
2017-Sep-11 05:30N 29°44' W 095°03'2 3.9
2017-Sep-11 04:57N 29°42' W 095°01'2 3.4
2017-Sep-11 04:30N 29°41' W 095°00'0 0.2
2017-Sep-11 03:52N 29°41' W 095°01'0 0.0
2017-Sep-11 03:28N 29°41' W 095°01'0 0.0
2017-Sep-11 00:10N 29°41' W 095°01'0 0.0
2017-Sep-10 23:55N 29°41' W 095°01'0 0.0
2017-Sep-10 22:31N 29°41' W 095°01'0 0.1
2017-Sep-10 22:22N 29°41' W 095°01'0 0.0
2017-Sep-10 19:01N 29°41' W 095°01'0 0.4
2017-Sep-10 18:55N 29°41' W 095°00'0 0.5
2017-Sep-10 18:30N 29°41' W 095°00'  

Dump ship's entire track history